Latest Weather Observations for Albury

IDV60801

Issued at 8:02 am EDT Monday 2 February 2015 (issued every 30 minutes, with the page automatically refreshed every 10 minutes)

About weather observations | Map of weather stations | Latest weather observations for VIC | Other Formats
Station Details ID: 072160 Name: ALBURY AIRPORT AWS Lat: -36.07 Lon: 146.95 Height: 163.5 m
Data from the previous 72 hours. | See also: Recent months at Albury
Date/Time
EDT
Temp
°C
App
Temp
°C
Dew
Point
Rel
Hum
%
Delta-T
°C
Wind Press
QNH
hPa
Press
MSL
hPa
Rain
since 9 am
mm
Dir
 
Spd
km/h
Gust
km/h
Spd
kts
Gust
kts
02/08:00am 18.8 14.7 8.5 51 5.4 SE 20 30 11 16 1015.2 1014.5 0.0
02/07:30am 18.2 13.9 7.9 51 5.3 SE 20 33 11 18 1014.7 1014.0 0.0
02/07:00am 17.6 14.3 7.9 53 5.0 SE 15 20 8 11 1014.3 1013.6 0.0
02/06:30am 17.1 13.7 7.7 54 4.8 SSE 15 22 8 12 1013.7 1013.0 0.0
02/06:00am 17.1 13.7 7.5 53 4.9 SSE 15 22 8 12 1013.5 1012.8 0.0
02/05:30am 17.3 14.7 7.6 53 4.9 SSE 11 17 6 9 1013.2 1012.4 0.0
02/05:00am 17.3 14.3 7.6 53 4.9 SE 13 20 7 11 1012.7 1011.9 0.0
02/04:30am 17.4 14.5 8.0 54 4.8 SSE 13 20 7 11 1012.5 1011.7 0.0
02/04:00am 17.5 14.7 8.4 55 4.7 SSE 13 22 7 12 1012.3 1011.5 0.0
02/03:30am 17.7 14.5 8.6 55 4.7 SSE 15 22 8 12 1012.2 1011.4 0.0
02/03:00am 18.0 14.1 8.6 54 4.9 SSE 19 26 10 14 1012.2 1011.4 0.0
02/02:30am 18.0 14.9 8.8 55 4.8 SSE 15 24 8 13 1012.2 1011.4 0.0
02/02:00am 18.0 15.9 9.6 58 4.5 SSE 11 17 6 9 1012.4 1011.6 0.0
02/01:30am 18.7 15.8 9.8 56 4.8 SSE 15 22 8 12 1012.3 1011.5 0.0
02/01:00am 19.4 17.0 10.1 55 5.0 SE 13 20 7 11 1012.5 1011.7 0.0
02/12:30am 19.9 16.1 9.2 50 5.7 SE 19 24 10 13 1012.4 1011.6 0.0
02/12:00am 20.2 15.9 9.2 49 5.9 SSE 22 30 12 16 1012.2 1011.4 0.0
 
Date/Time
EDT
Temp
°C
App
Temp
°C
Dew
Point
Rel
Hum
%
Delta-T
°C
Wind Press
QNH
hPa
Press
MSL
hPa
Rain
since 9 am
mm
Dir
 
Spd
km/h
Gust
km/h
Spd
kts
Gust
kts
01/11:30pm 20.3 17.7 9.2 49 5.9 SE 13 19 7 10 1012.1 1011.3 0.0
01/11:00pm 21.0 17.3 9.3 47 6.3 ESE 19 26 10 14 1011.4 1010.6 0.0
01/10:30pm 20.2 18.5 11.1 56 5.0 ESE 11 17 6 9 1011.0 1010.2 0.0
01/10:00pm 19.9 17.3 10.6 55 5.1 SSE 15 20 8 11 1010.3 1009.5 0.0
01/09:30pm 20.3 16.8 10.1 52 5.5 SSE 19 24 10 13 1010.0 1009.2 0.0
01/09:00pm 20.8 17.0 11.2 54 5.3 SSE 22 37 12 20 1009.7 1008.9 0.0
01/08:30pm 21.8 16.6 11.5 52 5.8 SSE 30 41 16 22 1009.4 1008.6 0.0
01/08:00pm 24.2 20.2 10.5 42 7.7 SSE 22 35 12 19 1008.6 1007.9 0.0
01/07:30pm 27.0 25.3 8.4 31 10.2 SE 7 11 4 6 1007.9 1007.1 0.0
01/07:00pm 27.5 25.3 9.3 32 10.1 S 11 17 6 9 1007.3 1006.5 0.0
01/06:30pm 27.5 25.5 10.2 34 9.8 W 11 17 6 9 1007.1 1006.3 0.0
01/06:00pm 27.2 25.5 10.0 34 9.7 WSW 9 15 5 8 1007.1 1006.3 0.0
01/05:30pm 28.1 26.4 9.9 32 10.2 SW 9 19 5 10 1007.1 1006.3 0.0
01/05:00pm 27.8 26.2 10.1 33 10.0 SE 9 20 5 11 1007.3 1006.5 0.0
01/04:30pm 27.6 25.0 9.4 32 10.1 SSE 13 24 7 13 1007.5 1006.7 0.0
01/04:00pm 28.1 26.5 10.3 33 10.1 SE 9 17 5 9 1007.7 1006.9 0.0
01/03:30pm 27.2 24.8 8.6 31 10.2 E 11 20 6 11 1008.1 1007.4 0.0
01/03:00pm 27.5 25.5 10.2 34 9.8 S 11 19 6 10 1008.3 1007.6 0.0
01/02:30pm 26.6 24.6 10.3 36 9.2 E 11 17 6 9 1008.6 1007.9 0.0
01/02:00pm 25.9 24.1 9.3 35 9.2 ESE 9 19 5 10 1008.8 1008.1 0.0
01/01:30pm 25.9 22.6 9.7 36 9.0 SSW 17 24 9 13 1009.1 1008.4 0.0
01/01:00pm 25.5 24.4 10.1 38 8.6 NE 6 13 3 7 1009.6 1008.8 0.0
01/12:30pm 24.6 23.3 9.3 38 8.4 NE 6 9 3 5 1009.8 1009.0 0.0
01/12:00pm 23.6 22.0 10.3 43 7.4 S 9 19 5 10 1010.1 1009.3 0.0
01/11:30am 23.6 21.9 11.3 46 6.9 SE 11 17 6 9 1010.3 1009.5 0.0
01/11:00am 23.2 20.8 11.3 47 6.7 SE 15 24 8 13 1010.3 1009.5 0.0
01/10:30am 22.3 19.9 11.4 50 6.1 SSE 15 20 8 11 1010.4 1009.6 0.0
01/10:00am 21.8 19.0 11.5 52 5.8 SSE 17 22 9 12 1010.3 1009.5 0.0
01/09:30am 20.1 16.9 11.3 57 4.9 SSE 19 24 10 13 1010.2 1009.4 0.0
01/09:00am 19.1 17.5 11.7 62 4.1 SSE 11 17 6 9 1010.2 1009.4 0.0
01/08:30am 18.9 17.0 11.7 63 4.0 SSE 13 17 7 9 1009.8 1009.0 0.0
01/08:00am 16.7 15.5 11.6 72 2.8 SSE 9 15 5 8 1009.6 1008.7 0.0
01/07:30am 15.4 14.1 11.2 76 2.3 S 9 11 5 6 1009.2 1008.4 0.0
01/07:00am 15.1 13.7 10.9 76 2.3 SSE 9 13 5 7 1009.0 1008.2 0.0
01/06:30am 14.5 13.7 10.9 79 1.9 SE 6 9 3 5 1008.7 1007.9 0.0
01/06:00am 14.1 13.0 10.7 80 1.8 S 7 9 4 5 1008.5 1007.7 0.0
01/05:30am 14.2 13.2 10.4 78 2.0 S 6 7 3 4 1008.3 1007.5 0.0
01/05:00am 14.7 13.8 10.7 77 2.1 S 6 7 3 4 1008.3 1007.5 0.0
01/04:30am 15.1 14.5 10.5 74 2.4 SSW 4 7 2 4 1008.3 1007.5 0.0
01/04:00am 15.2 15.0 10.6 74 2.5 NW 2 7 1 4 1008.3 1007.5 0.0
01/03:30am 15.9 16.1 10.7 71 2.8 CALM 0 0 0 0 1008.3 1007.5 0.0
01/03:00am 16.2 16.4 10.7 70 3.0 CALM 0 0 0 0 1008.4 1007.6 0.0
01/02:30am 16.5 16.7 10.6 68 3.2 CALM 0 0 0 0 1008.4 1007.6 0.0
01/02:00am 16.5 15.6 10.6 68 3.2 SSE 6 9 3 5 1008.4 1007.6 0.0
01/01:30am 17.3 16.4 10.7 65 3.6 SSE 6 9 3 5 1008.4 1007.6 0.0
01/01:00am 17.7 16.6 10.8 64 3.7 S 7 9 4 5 1008.5 1007.7 0.0
01/12:30am 17.4 16.3 10.5 64 3.7 S 7 7 4 4 1008.7 1007.9 0.0
01/12:00am 18.1 17.2 10.5 61 4.1 S 6 7 3 4 1008.8 1008.0 0.0
 
Date/Time
EDT
Temp
°C
App
Temp
°C
Dew
Point
Rel
Hum
%
Delta-T
°C
Wind Press
QNH
hPa
Press
MSL
hPa
Rain
since 9 am
mm
Dir
 
Spd
km/h
Gust
km/h
Spd
kts
Gust
kts
31/11:30pm 18.7 17.7 10.3 58 4.5 S 6 7 3 4 1008.8 1008.0 0.0
31/11:00pm 18.7 17.7 10.3 58 4.5 SSW 6 9 3 5 1009.0 1008.2 0.0
31/10:30pm 20.4 19.4 11.1 55 5.1 S 7 13 4 7 1008.8 1008.0 0.0
31/10:00pm 20.9 18.8 11.0 53 5.5 SE 13 17 7 9 1008.6 1007.8 0.0
31/09:30pm 21.1 19.3 10.9 52 5.6 SSE 11 17 6 9 1008.2 1007.4 0.0
31/09:00pm 22.0 19.8 10.8 49 6.2 SSE 13 19 7 10 1007.9 1007.1 0.0
31/08:30pm 23.1 20.9 10.9 46 6.8 SE 13 19 7 10 1007.6 1006.8 0.0
31/08:00pm 24.2 22.7 10.5 42 7.7 SE 9 11 5 6 1007.3 1006.5 0.0
31/07:30pm 24.6 22.4 9.3 38 8.4 ESE 11 13 6 7 1007.0 1006.2 0.0
31/07:00pm 25.4 23.7 8.4 34 9.2 SSE 7 11 4 6 1006.6 1005.8 0.0
31/06:30pm 26.2 24.6 8.7 33 9.6 SSE 7 11 4 6 1006.4 1005.6 0.0
31/06:00pm 25.1 22.9 7.7 33 9.3 SSE 9 15 5 8 1006.4 1005.6 0.0
31/05:30pm 25.5 23.4 8.1 33 9.4 SSE 9 15 5 8 1006.6 1005.8 0.0
31/05:00pm 25.9 23.4 8.4 33 9.5 NW 11 28 6 15 1006.8 1006.0 0.0
31/04:30pm 25.4 22.4 7.5 32 9.5 WSW 13 20 7 11 1007.2 1006.4 0.0
31/04:00pm 26.7 23.0 9.5 34 9.6 WSW 19 32 10 17 1007.3 1006.5 0.0
31/03:30pm 25.4 22.7 8.8 35 9.0 W 13 19 7 10 1007.5 1006.7 0.0
31/03:00pm 24.8 24.1 8.7 36 8.8 WNW 2 9 1 5 1007.7 1006.9 0.0
31/02:30pm 24.5 22.0 9.6 39 8.2 SSE 13 20 7 11 1007.9 1007.1 0.0
31/02:00pm 24.0 21.4 9.2 39 8.1 W 13 22 7 12 1008.3 1007.5 0.0
31/01:30pm 23.6 20.4 8.5 38 8.1 W 15 22 8 12 1008.5 1007.7 0.0
31/01:00pm 23.2 20.8 9.9 43 7.3 WNW 13 19 7 10 1008.7 1007.9 0.0
31/12:30pm 22.4 19.6 7.0 37 8.0 WSW 11 26 6 14 1008.9 1008.1 0.0
31/12:00pm 21.9 20.5 8.8 43 7.0 ESE 6 9 3 5 1008.9 1008.1 0.0
31/11:30am 20.4 17.9 8.1 45 6.4 S 11 15 6 8 1009.2 1008.4 0.0
31/11:00am 20.3 18.5 8.0 45 6.4 ESE 7 13 4 7 1009.5 1008.6 0.0
31/10:30am 19.8 18.4 8.8 49 5.8 ESE 6 13 3 7 1009.9 1009.1 0.0
31/10:00am 18.5 16.7 7.9 50 5.5 SSE 7 11 4 6 1010.2 1009.4 0.0
31/09:30am 18.0 16.4 8.8 55 4.8 SSE 7 13 4 7 1010.3 1009.5 0.0
31/09:00am 16.4 14.9 8.4 59 4.1 SSW 6 11 3 6 1010.2 1009.4 0.0
31/08:30am 15.8 14.1 8.5 62 3.7 SE 7 9 4 5 1010.1 1009.3 0.0
31/08:00am 14.0 13.2 8.0 67 3.0 S 2 7 1 4 1010.1 1009.3 0.0
31/07:30am 12.6 10.9 7.7 72 2.4 SSW 6 7 3 4 1010.0 1009.2 0.0
31/07:00am 11.7 10.8 7.6 76 2.0 SE 2 6 1 3 1009.6 1008.7 0.0
31/06:30am 10.6 8.2 7.1 79 1.7 SSW 9 13 5 7 1009.4 1008.5 0.0
31/06:00am 11.0 8.6 7.1 77 1.9 S 9 11 5 6 1009.2 1008.4 0.0
31/05:30am 12.0 10.1 7.5 74 2.2 SSE 7 11 4 6 1008.8 1008.0 0.0
31/05:00am 11.9 10.1 7.0 72 2.4 S 6 7 3 4 1008.8 1008.0 0.0
31/04:30am 12.2 10.4 7.1 71 2.5 S 6 7 3 4 1008.6 1007.8 0.0
31/04:00am 12.6 10.8 7.3 70 2.6 S 6 9 3 5 1008.9 1008.1 0.0
31/03:30am 13.0 12.4 7.2 68 2.8 CALM 0 4 0 2 1009.0 1008.2 0.0
31/03:00am 13.4 11.6 7.2 66 3.0 S 6 7 3 4 1009.1 1008.3 0.0
31/02:30am 14.0 12.1 7.5 65 3.2 S 7 9 4 5 1009.4 1008.5 0.0
31/02:00am 13.9 12.2 7.4 65 3.2 SSW 6 7 3 4 1009.6 1008.7 0.0
31/01:30am 14.4 13.1 7.7 64 3.3 SW 4 7 2 4 1009.7 1008.8 0.0
31/01:00am 14.8 12.7 8.1 64 3.4 SSW 9 13 5 7 1009.8 1009.0 0.0
31/12:30am 15.4 13.6 7.9 61 3.8 SSW 7 9 4 5 1009.7 1008.8 0.0
31/12:00am 15.8 14.0 8.1 60 3.9 S 7 13 4 7 1009.7 1008.8 0.0
 
Date/Time
EDT
Temp
°C
App
Temp
°C
Dew
Point
Rel
Hum
%
Delta-T
°C
Wind Press
QNH
hPa
Press
MSL
hPa
Rain
since 9 am
mm
Dir
 
Spd
km/h
Gust
km/h
Spd
kts
Gust
kts
30/11:30pm 17.0 14.0 7.6 54 4.8 SE 13 19 7 10 1009.9 1009.1 0.0
30/11:00pm 16.3 14.2 8.3 59 4.1 SSE 9 15 5 8 1010.0 1009.2 0.0
30/10:30pm 17.2 14.7 8.4 56 4.5 SSE 11 15 6 8 1010.1 1009.3 0.0
30/10:00pm 18.1 15.8 8.9 55 4.8 SE 11 17 6 9 1010.1 1009.3 0.0
30/09:30pm 17.6 15.7 9.0 57 4.5 S 9 11 5 6 1010.0 1009.2 0.0
30/09:00pm 19.2 16.5 8.8 51 5.5 SE 13 17 7 9 1009.6 1008.7 0.0
30/08:30pm 20.3 17.4 8.3 46 6.3 SSE 13 19 7 10 1009.2 1008.4 0.0
30/08:00pm 21.1 18.3 8.7 45 6.6 SE 13 19 7 10 1009.2 1008.4 0.0
30/07:30pm 21.2 18.4 8.5 44 6.7 SSE 13 17 7 9 1009.1 1008.3 0.0
30/07:00pm 21.5 17.7 7.7 41 7.2 SSE 17 22 9 12 1008.9 1008.1 0.0
30/06:30pm 21.9 18.8 7.3 39 7.6 SE 13 20 7 11 1008.7 1007.9 0.0
30/06:00pm 22.1 19.0 7.1 38 7.8 SSE 13 19 7 10 1008.8 1008.0 0.0
30/05:30pm 22.1 18.2 7.1 38 7.8 S 17 24 9 13 1009.0 1008.2 0.0
30/05:00pm 22.7 18.9 7.7 38 7.9 S 17 28 9 15 1009.1 1008.3 0.0
30/04:30pm 22.5 19.1 7.5 38 7.9 SSE 15 20 8 11 1009.5 1008.6 0.0
30/04:00pm 22.8 19.1 7.8 38 7.9 S 17 28 9 15 1009.7 1008.8 0.0
30/03:30pm 22.4 20.1 7.4 38 7.8 SW 9 17 5 9 1010.0 1009.2 0.0
30/03:00pm 22.5 18.2 7.1 37 8.0 SSE 19 26 10 14 1010.5 1009.7 0.0
30/02:30pm 21.4 17.4 6.5 38 7.6 SSE 17 26 9 14 1010.9 1010.1 0.0
30/02:00pm 21.8 17.9 7.2 39 7.6 S 17 26 9 14 1011.2 1010.4 0.0
30/01:30pm 21.0 16.8 5.8 37 7.6 SSE 17 26 9 14 1011.5 1010.7 0.0
30/01:00pm 20.7 15.9 5.5 37 7.6 SSE 20 28 11 15 1011.7 1010.9 0.0
30/12:30pm 20.6 17.2 5.8 38 7.4 SSE 13 20 7 11 1012.0 1011.2 0.0
30/12:00pm 19.8 16.8 6.2 41 6.8 SSW 11 19 6 10 1012.3 1011.5 0.0
30/11:30am 20.1 16.0 6.1 40 7.0 SSW 17 24 9 13 1012.7 1011.9 0.0
30/11:00am 18.8 14.4 4.6 39 6.9 SSE 17 24 9 13 1012.8 1012.0 0.0
30/10:30am 18.6 14.6 5.1 41 6.6 SSE 15 20 8 11 1013.1 1012.3 0.0
30/10:00am 17.7 14.8 6.3 47 5.7 SSE 11 20 6 11 1013.3 1012.5 0.0
30/09:30am 16.5 13.8 5.5 48 5.3 SSE 9 15 5 8 1013.5 1012.7 0.0
30/09:00am 16.3 13.6 5.6 49 5.2 SSW 9 13 5 7 1013.6 1012.8 0.0
30/08:30am 14.9 12.7 6.2 56 4.2 S 7 9 4 5 1013.5 1012.7 0.0

Other Formats:

Comma delimited format used in spreadsheet applications
http://www.bom.gov.au/fwo/IDV60801/IDV60801.95896.axf

JavaScript Object Notation format (JSON) in row-major order
http://www.bom.gov.au/fwo/IDV60801/IDV60801.95896.json